KTPH/TPH METAR and TAF weather

Enter ICAO airport designator
Station Type Date Time Source
KTPH METAR 2021/06/24 04:56 UTC NOAA

KTPH 240456Z AUTO 12006KT 10SM CLR 21/06 A3013 RMK AO2 SLP123 T02060061


Station Type Date Time Source
KTPH Decoded METAR 2021/06/24 04:56 UTC NOAA

TONOPAH AIRPORT, NV, United States (KTPH) 38-02N 117-05W 1652M
Jun 24, 2021 - 12:56 AM EDT / 2021.06.24 0456 UTC
Wind: from the ESE (120 degrees) at 7 MPH (6 KT):0
Visibility: 10 mile(s):0
Sky conditions: clear
Temperature: 69.1 F (20.6 C)
Dew Point: 43.0 F (6.1 C)
Relative Humidity: 38%
Pressure (altimeter): 30.13 in. Hg (1020 hPa)
ob: KTPH 240456Z AUTO 12006KT 10SM CLR 21/06 A3013 RMK AO2 SLP123 T02060061
cycle: 5

Station Type Date Time Source
KTPH TAF 2021/06/24 06:22 UTC NOAA

TAF KTPH 240520Z 2406/2506 VRB06KT P6SM SCT120
FM241800 21010G18KT P6SM BKN120
FM242300 35015G25KT P6SM VCTS SCT100 BKN120CB

Example: see airport list